createdAt,value
2018-09-21T00:01:23.993Z,97.30
2018-09-21T00:03:57.914Z,97.30
2018-09-21T00:06:26.588Z,97.40
2018-09-21T00:08:55.077Z,97.40
2018-09-21T00:11:23.735Z,97.40
2018-09-21T00:13:52.219Z,97.50
2018-09-21T00:16:21.622Z,97.50
2018-09-21T00:18:50.191Z,97.60
2018-09-21T00:21:18.630Z,97.50
2018-09-21T00:23:47.155Z,97.50
2018-09-21T00:26:15.603Z,97.70
2018-09-21T00:28:44.030Z,97.80
2018-09-21T00:31:12.607Z,97.90
2018-09-21T00:33:41.156Z,97.90
2018-09-21T00:36:09.664Z,97.80
2018-09-21T00:38:38.181Z,97.80
2018-09-21T00:41:06.618Z,97.70
2018-09-21T00:43:35.065Z,97.80
2018-09-21T00:46:03.508Z,97.70
2018-09-21T00:48:31.991Z,97.90
2018-09-21T00:51:00.435Z,98.00
2018-09-21T00:53:28.965Z,97.90
2018-09-21T00:55:57.439Z,98.10
2018-09-21T00:58:25.898Z,98.00
2018-09-21T01:00:54.335Z,98.20
2018-09-21T01:03:23.018Z,98.50
2018-09-21T01:05:51.454Z,98.70
2018-09-21T01:08:19.982Z,98.70
2018-09-21T01:10:48.394Z,98.70
2018-09-21T01:13:16.906Z,98.70
2018-09-21T01:15:45.331Z,98.70
2018-09-21T01:18:13.768Z,98.60
2018-09-21T01:20:42.243Z,98.70
2018-09-21T01:23:10.831Z,98.70
2018-09-21T01:25:39.295Z,98.60
2018-09-21T01:28:07.947Z,98.40
2018-09-21T01:30:36.433Z,98.50
2018-09-21T01:33:04.925Z,98.50
2018-09-21T01:35:33.368Z,98.50
2018-09-21T01:38:01.834Z,98.70
2018-09-21T01:40:30.299Z,98.80
2018-09-21T01:42:58.795Z,98.90
2018-09-21T01:45:27.364Z,98.80
2018-09-21T01:47:55.807Z,98.90
2018-09-21T01:50:24.374Z,98.80
2018-09-21T01:52:53.128Z,98.80
2018-09-21T01:55:21.559Z,98.80
2018-09-21T01:57:50.230Z,98.90
2018-09-21T02:00:18.779Z,98.90
2018-09-21T02:02:47.370Z,99.10
2018-09-21T02:05:15.785Z,99.50
2018-09-21T02:07:44.298Z,99.50
2018-09-21T02:10:12.720Z,99.50
2018-09-21T02:12:41.174Z,99.60
2018-09-21T02:15:09.587Z,99.50
2018-09-21T02:17:38.055Z,99.50
2018-09-21T02:20:06.692Z,99.40
2018-09-21T02:22:35.239Z,99.50
2018-09-21T02:25:03.723Z,99.30
2018-09-21T02:27:32.131Z,99.70
2018-09-21T02:30:00.561Z,99.60
2018-09-21T02:32:28.965Z,99.60
2018-09-21T02:34:57.394Z,99.70
2018-09-21T02:37:25.840Z,99.50
2018-09-21T02:39:54.274Z,99.50
2018-09-21T02:42:22.715Z,99.30
2018-09-21T02:44:51.175Z,99.50
2018-09-21T02:47:19.597Z,99.50
2018-09-21T02:49:48.128Z,99.70
2018-09-21T02:52:16.531Z,99.50
2018-09-21T02:54:44.991Z,99.70
2018-09-21T02:57:13.431Z,99.80
2018-09-21T02:59:41.935Z,99.80
2018-09-21T03:02:10.368Z,99.90
2018-09-21T03:04:44.439Z,99.90
2018-09-21T03:07:12.863Z,99.90
2018-09-21T03:09:41.360Z,99.90
2018-09-21T03:12:10.059Z,99.90
2018-09-21T03:14:38.951Z,99.90
2018-09-21T03:17:07.627Z,99.90
2018-09-21T03:19:36.070Z,99.90
2018-09-21T03:22:04.494Z,99.90
2018-09-21T03:24:32.937Z,99.90
2018-09-21T03:27:01.608Z,99.80
2018-09-21T03:29:30.238Z,99.80
2018-09-21T03:31:58.825Z,99.90
2018-09-21T03:34:27.341Z,99.80
2018-09-21T03:36:55.888Z,99.90
2018-09-21T03:39:24.404Z,99.90
2018-09-21T03:41:52.939Z,99.80
2018-09-21T03:44:21.531Z,99.80
2018-09-21T03:46:49.971Z,99.90
2018-09-21T03:49:18.408Z,99.80
2018-09-21T03:51:46.869Z,99.60
2018-09-21T03:54:15.291Z,99.70
2018-09-21T03:56:43.730Z,99.60
2018-09-21T03:59:12.180Z,99.50
2018-09-21T04:01:40.746Z,99.80
2018-09-21T04:04:09.157Z,99.50
2018-09-21T04:06:37.632Z,99.40
2018-09-21T04:09:08.087Z,99.40
2018-09-21T04:11:36.543Z,99.40
2018-09-21T04:14:04.929Z,99.50
2018-09-21T04:16:33.460Z,99.30
2018-09-21T04:19:01.875Z,99.50
2018-09-21T04:21:30.328Z,99.50
2018-09-21T04:23:58.736Z,99.80
2018-09-21T04:26:27.174Z,99.80
2018-09-21T04:28:55.928Z,99.70
2018-09-21T04:31:24.372Z,99.80
2018-09-21T04:33:52.830Z,99.60
2018-09-21T04:36:21.280Z,99.80
2018-09-21T04:38:49.727Z,99.90
2018-09-21T04:41:18.255Z,99.90
2018-09-21T04:43:46.812Z,99.90
2018-09-21T04:46:15.373Z,99.90
2018-09-21T04:48:43.853Z,99.90
2018-09-21T04:51:12.449Z,99.90
2018-09-21T04:53:40.946Z,99.90
2018-09-21T04:56:09.746Z,99.90
2018-09-21T04:58:38.185Z,99.90
2018-09-21T05:01:06.752Z,99.90
2018-09-21T05:03:35.241Z,99.80
2018-09-21T05:06:03.715Z,99.50
2018-09-21T05:08:32.147Z,99.20
2018-09-21T05:11:00.606Z,99.00
2018-09-21T05:13:29.055Z,98.90
2018-09-21T05:15:57.511Z,98.80
2018-09-21T05:18:26.045Z,99.00
2018-09-21T05:20:54.751Z,98.90
2018-09-21T05:23:23.229Z,98.80
2018-09-21T05:25:51.825Z,98.10
2018-09-21T05:28:20.334Z,98.10
2018-09-21T05:30:49.279Z,97.60
2018-09-21T05:33:17.683Z,97.80
2018-09-21T05:35:46.210Z,97.00
2018-09-21T05:38:14.610Z,97.00
2018-09-21T05:40:43.074Z,96.80
2018-09-21T05:43:11.541Z,96.90
2018-09-21T05:45:39.997Z,97.00
2018-09-21T05:48:08.509Z,96.80
2018-09-21T05:50:36.976Z,96.60
2018-09-21T05:53:05.599Z,96.70
2018-09-21T05:55:34.050Z,96.30
2018-09-21T05:58:02.703Z,96.20
2018-09-21T06:00:31.144Z,96.10
2018-09-21T06:02:59.682Z,95.70
2018-09-21T06:05:28.367Z,95.80
2018-09-21T06:07:56.970Z,95.60
2018-09-21T06:10:25.598Z,95.20
2018-09-21T06:12:54.082Z,94.80
2018-09-21T06:15:22.548Z,95.30
2018-09-21T06:17:51.058Z,96.00
2018-09-21T06:20:19.644Z,96.50
2018-09-21T06:22:48.250Z,94.80
2018-09-21T06:25:17.306Z,95.60
2018-09-21T06:27:45.868Z,93.80
2018-09-21T06:30:14.315Z,93.20
2018-09-21T06:32:49.095Z,92.70
2018-09-21T06:35:17.541Z,91.90
2018-09-21T06:37:46.180Z,91.90
2018-09-21T06:40:14.700Z,91.10
2018-09-21T06:42:43.142Z,90.60
2018-09-21T06:45:11.563Z,90.60
2018-09-21T06:47:40.113Z,89.60
2018-09-21T06:50:08.558Z,89.50
2018-09-21T06:52:37.339Z,88.30
2018-09-21T06:55:06.104Z,87.80
2018-09-21T06:57:34.599Z,87.10
2018-09-21T07:00:03.042Z,86.00
2018-09-21T07:02:31.502Z,84.90
2018-09-21T07:05:05.214Z,84.10
2018-09-21T07:07:33.674Z,83.50
2018-09-21T07:10:02.193Z,82.70
2018-09-21T07:12:30.796Z,82.00
2018-09-21T07:14:59.258Z,80.50
2018-09-21T07:17:27.716Z,79.90
2018-09-21T07:19:56.180Z,80.10
2018-09-21T07:22:24.656Z,80.20
2018-09-21T07:24:53.109Z,78.50
2018-09-21T07:27:21.627Z,76.70
2018-09-21T07:29:50.079Z,77.50
2018-09-21T07:32:18.584Z,74.70
2018-09-21T07:34:47.099Z,75.00
2018-09-21T07:37:15.541Z,74.50
2018-09-21T07:39:43.975Z,73.60
2018-09-21T07:42:12.539Z,73.40
2018-09-21T07:44:41.146Z,73.30
2018-09-21T07:47:09.744Z,71.80
2018-09-21T07:49:38.256Z,70.40
2018-09-21T07:52:06.714Z,69.60
2018-09-21T07:54:35.316Z,69.90
2018-09-21T07:57:03.865Z,69.10
2018-09-21T07:59:32.940Z,69.20
2018-09-21T08:02:02.197Z,68.70
2018-09-21T08:04:30.701Z,67.40
2018-09-21T08:06:59.229Z,66.60
2018-09-21T08:09:27.691Z,64.80
2018-09-21T08:11:56.837Z,65.60
2018-09-21T08:14:25.867Z,65.00
2018-09-21T08:16:54.858Z,64.60
2018-09-21T08:19:23.330Z,63.90
2018-09-21T08:21:52.438Z,63.80
2018-09-21T08:24:20.953Z,64.50
2018-09-21T08:26:49.368Z,63.10
2018-09-21T08:29:17.962Z,61.90
2018-09-21T08:31:46.424Z,61.80
2018-09-21T08:34:14.853Z,61.50
2018-09-21T08:36:43.822Z,61.20
2018-09-21T08:39:12.640Z,61.00
2018-09-21T08:41:41.843Z,60.70
2018-09-21T08:44:11.026Z,61.00
2018-09-21T08:46:40.165Z,61.20
2018-09-21T08:49:09.263Z,60.30
2018-09-21T08:51:38.254Z,60.80
2018-09-21T08:54:07.335Z,61.80
2018-09-21T08:56:36.329Z,60.10
2018-09-21T08:59:05.319Z,60.00
2018-09-21T09:01:34.336Z,60.20
2018-09-21T09:04:03.327Z,60.80
2018-09-21T09:06:32.432Z,60.70
2018-09-21T09:09:01.539Z,61.40
2018-09-21T09:11:30.699Z,61.00
2018-09-21T09:13:59.717Z,61.30
2018-09-21T09:16:28.713Z,59.40
2018-09-21T09:18:57.715Z,59.20
2018-09-21T09:21:26.712Z,58.80
2018-09-21T09:23:55.826Z,59.30
2018-09-21T09:26:24.827Z,59.20
2018-09-21T09:28:54.010Z,57.80
2018-09-21T09:31:23.003Z,56.80
2018-09-21T09:33:51.496Z,57.50
2018-09-21T09:36:20.883Z,57.70
2018-09-21T09:38:49.912Z,58.00
2018-09-21T09:41:18.894Z,57.10
2018-09-21T09:43:47.920Z,56.70
2018-09-21T09:46:17.051Z,56.40
2018-09-21T09:48:46.141Z,56.10
2018-09-21T09:51:15.272Z,55.40
2018-09-21T09:53:44.390Z,56.00
2018-09-21T09:56:13.388Z,55.40
2018-09-21T09:58:42.379Z,55.40
2018-09-21T10:01:11.390Z,54.60
2018-09-21T10:03:40.390Z,57.20
2018-09-21T10:06:09.687Z,54.40
2018-09-21T10:08:38.745Z,54.80
2018-09-21T10:11:07.764Z,54.60
2018-09-21T10:13:36.801Z,54.10
2018-09-21T10:16:05.823Z,53.40
2018-09-21T10:18:35.027Z,52.90
2018-09-21T10:21:04.064Z,52.30
2018-09-21T10:23:33.131Z,52.90
2018-09-21T10:26:02.205Z,53.50
2018-09-21T10:28:31.503Z,52.60
2018-09-21T10:31:00.511Z,50.70
2018-09-21T10:33:29.645Z,51.00
2018-09-21T10:35:58.926Z,51.00
2018-09-21T10:38:27.902Z,50.70
2018-09-21T10:41:03.549Z,50.00
2018-09-21T10:43:32.483Z,50.20
2018-09-21T10:46:01.551Z,49.90
2018-09-21T10:48:30.709Z,49.40
2018-09-21T10:51:00.470Z,48.70
2018-09-21T10:53:28.911Z,49.90
2018-09-21T10:55:57.944Z,49.40
2018-09-21T10:58:26.985Z,50.30
2018-09-21T11:00:56.262Z,49.30
2018-09-21T11:03:25.243Z,49.20
2018-09-21T11:05:54.327Z,49.00
2018-09-21T11:08:23.356Z,49.00
2018-09-21T11:10:53.180Z,49.60
2018-09-21T11:13:23.699Z,50.00
2018-09-21T11:15:55.022Z,49.40
2018-09-21T11:18:29.399Z,50.60
2018-09-21T11:20:58.402Z,50.80
2018-09-21T11:23:27.388Z,51.20
2018-09-21T11:25:56.403Z,49.50
2018-09-21T11:28:25.443Z,49.40
2018-09-21T11:30:54.431Z,48.70
2018-09-21T11:33:25.013Z,48.40
2018-09-21T11:35:55.823Z,48.30
2018-09-21T11:38:26.555Z,48.50
2018-09-21T11:40:57.250Z,48.10
2018-09-21T11:43:27.677Z,48.60
2018-09-21T11:45:56.787Z,48.40
2018-09-21T11:48:25.814Z,47.50
2018-09-21T11:50:54.963Z,48.10
2018-09-21T11:53:24.059Z,46.00
2018-09-21T11:55:53.087Z,46.20
2018-09-21T11:58:22.247Z,46.30
2018-09-21T12:00:51.287Z,46.20
2018-09-21T12:03:20.333Z,46.10
2018-09-21T12:05:49.317Z,45.60
2018-09-21T12:08:18.367Z,45.00
2018-09-21T12:10:47.515Z,45.40
2018-09-21T12:13:16.515Z,44.20
2018-09-21T12:15:45.539Z,44.00
2018-09-21T12:18:14.531Z,43.80
2018-09-21T12:20:43.569Z,42.50
2018-09-21T12:23:12.573Z,41.80
2018-09-21T12:25:41.588Z,41.30
2018-09-21T12:28:10.600Z,41.00
2018-09-21T12:30:39.607Z,40.60
2018-09-21T12:33:08.607Z,40.60
2018-09-21T12:35:37.747Z,40.90
2018-09-21T12:38:07.326Z,41.20
2018-09-21T12:40:36.799Z,41.10
2018-09-21T12:43:06.051Z,40.10
2018-09-21T12:45:35.147Z,39.80
2018-09-21T12:48:05.297Z,38.70
2018-09-21T12:50:34.408Z,38.60
2018-09-21T12:53:03.883Z,38.30
2018-09-21T12:55:32.915Z,38.40
2018-09-21T12:58:02.352Z,38.80
2018-09-21T13:00:36.789Z,39.30
2018-09-21T13:03:05.807Z,39.50
2018-09-21T13:05:34.791Z,39.90
2018-09-21T13:08:03.963Z,40.10
2018-09-21T13:10:32.925Z,39.80
2018-09-21T13:13:02.045Z,39.40
2018-09-21T13:15:31.005Z,39.30
2018-09-21T13:18:00.350Z,38.50
2018-09-21T13:20:29.343Z,37.30
2018-09-21T13:22:58.370Z,36.90
2018-09-21T13:25:27.331Z,37.50
2018-09-21T13:27:56.580Z,37.10
2018-09-21T13:30:25.774Z,36.80
2018-09-21T13:32:54.764Z,36.70
2018-09-21T13:35:23.758Z,36.60
2018-09-21T13:37:52.785Z,35.40
2018-09-21T13:40:21.819Z,35.90
2018-09-21T13:42:51.088Z,35.00
2018-09-21T13:45:20.466Z,35.90
2018-09-21T13:47:49.631Z,35.60
2018-09-21T13:50:18.665Z,35.60
2018-09-21T13:52:47.675Z,35.80
2018-09-21T13:55:16.775Z,36.30
2018-09-21T13:57:45.740Z,36.00
2018-09-21T14:00:14.783Z,35.70
2018-09-21T14:02:43.857Z,36.40
2018-09-21T14:05:13.109Z,37.10
2018-09-21T14:07:42.528Z,37.50
2018-09-21T14:10:11.899Z,38.20
2018-09-21T14:12:41.641Z,38.90
2018-09-21T14:15:10.667Z,38.80
2018-09-21T14:17:39.763Z,38.80
2018-09-21T14:20:08.741Z,39.00
2018-09-21T14:22:37.815Z,39.10
2018-09-21T14:25:06.985Z,39.40
2018-09-21T14:27:36.019Z,40.10
2018-09-21T14:30:05.330Z,40.80
2018-09-21T14:32:34.401Z,41.20
2018-09-21T14:35:03.415Z,41.90
2018-09-21T14:37:32.438Z,42.70
2018-09-21T14:40:01.931Z,42.30
2018-09-21T14:42:31.210Z,42.40
2018-09-21T14:45:00.579Z,42.70
2018-09-21T14:47:29.719Z,42.70
2018-09-21T14:49:59.514Z,43.00
2018-09-21T14:52:28.758Z,43.50
2018-09-21T14:54:58.032Z,44.00
2018-09-21T14:57:27.118Z,44.10
2018-09-21T14:59:56.126Z,44.20
2018-09-21T15:02:25.322Z,44.20
2018-09-21T15:04:54.477Z,44.50
2018-09-21T15:07:23.526Z,44.80
2018-09-21T15:09:52.760Z,44.70
2018-09-21T15:12:21.889Z,45.20
2018-09-21T15:14:50.932Z,45.30
2018-09-21T15:17:19.950Z,45.90
2018-09-21T15:19:48.967Z,46.20
2018-09-21T15:22:18.083Z,46.80
2018-09-21T15:24:47.336Z,47.20
2018-09-21T15:27:16.606Z,47.80
2018-09-21T15:29:45.842Z,48.20
2018-09-21T15:32:15.035Z,48.70
2018-09-21T15:34:44.980Z,49.10
2018-09-21T15:37:14.453Z,49.40
2018-09-21T15:39:43.512Z,49.80
2018-09-21T15:42:12.615Z,50.30
2018-09-21T15:44:41.729Z,50.50
2018-09-21T15:47:10.842Z,50.90
2018-09-21T15:49:39.924Z,51.10
2018-09-21T15:52:09.125Z,51.30
2018-09-21T15:54:38.215Z,51.30
2018-09-21T15:57:07.289Z,51.40
2018-09-21T15:59:36.376Z,51.30
2018-09-21T16:02:05.413Z,51.70
2018-09-21T16:04:34.628Z,52.00
2018-09-21T16:07:03.655Z,52.20
2018-09-21T16:09:32.858Z,52.50
2018-09-21T16:12:01.899Z,52.90
2018-09-21T16:14:30.939Z,53.00
2018-09-21T16:17:00.105Z,53.20
2018-09-21T16:19:29.282Z,53.50
2018-09-21T16:22:00.012Z,53.90
2018-09-21T16:24:29.012Z,54.00
2018-09-21T16:26:58.032Z,54.30
2018-09-21T16:29:27.002Z,54.70
2018-09-21T16:31:56.022Z,54.90
2018-09-21T16:34:24.993Z,55.10
2018-09-21T16:36:53.462Z,55.40
2018-09-21T16:39:22.538Z,56.40
2018-09-21T16:41:51.699Z,55.90
2018-09-21T16:44:20.712Z,56.30
2018-09-21T16:46:49.717Z,56.60
2018-09-21T16:49:18.791Z,56.90
2018-09-21T16:51:47.911Z,58.00
2018-09-21T16:54:16.673Z,58.10
2018-09-21T16:56:45.687Z,58.60
2018-09-21T16:59:14.775Z,59.10
2018-09-21T17:01:44.086Z,59.50
2018-09-21T17:04:13.210Z,59.90
2018-09-21T17:06:42.383Z,60.40
2018-09-21T17:09:12.483Z,60.60
2018-09-21T17:11:41.483Z,61.10
2018-09-21T17:14:10.501Z,61.10
2018-09-21T17:16:39.533Z,61.10
2018-09-21T17:19:08.544Z,61.30
2018-09-21T17:21:37.658Z,61.80
2018-09-21T17:24:06.655Z,61.80
2018-09-21T17:26:35.664Z,62.00
2018-09-21T17:29:04.706Z,62.50
2018-09-21T17:31:33.749Z,63.00
2018-09-21T17:34:02.938Z,64.00
2018-09-21T17:36:32.001Z,64.40
2018-09-21T17:39:01.367Z,64.70
2018-09-21T17:41:29.852Z,64.90
2018-09-21T17:43:58.283Z,65.30
2018-09-21T17:46:27.299Z,65.50
2018-09-21T17:48:55.745Z,65.10
2018-09-21T17:51:24.224Z,65.70
2018-09-21T17:53:52.645Z,65.70
2018-09-21T17:56:21.327Z,66.00
2018-09-21T17:58:50.461Z,67.70
2018-09-21T18:01:18.887Z,67.80
2018-09-21T18:03:47.455Z,68.30
2018-09-21T18:06:15.884Z,69.00
2018-09-21T18:08:45.133Z,68.90
2018-09-21T18:11:13.544Z,68.90
2018-09-21T18:13:41.988Z,68.20
2018-09-21T18:16:10.557Z,69.20
2018-09-21T18:18:39.180Z,71.00
2018-09-21T18:21:07.938Z,71.40
2018-09-21T18:23:36.670Z,72.00
2018-09-21T18:26:05.353Z,72.00
2018-09-21T18:28:33.920Z,72.20
2018-09-21T18:31:02.613Z,72.20
2018-09-21T18:33:31.073Z,71.70
2018-09-21T18:35:59.605Z,72.00
2018-09-21T18:38:28.083Z,72.60
2018-09-21T18:40:56.698Z,74.00
2018-09-21T18:43:25.344Z,74.50
2018-09-21T18:45:53.860Z,75.00
2018-09-21T18:48:22.874Z,75.10
2018-09-21T18:50:53.000Z,75.50
2018-09-21T18:53:22.442Z,75.90
2018-09-21T18:55:51.695Z,76.10
2018-09-21T18:58:20.196Z,76.60
2018-09-21T19:00:48.663Z,76.80
2018-09-21T19:03:17.152Z,78.60
2018-09-21T19:05:45.733Z,80.60
2018-09-21T19:08:14.188Z,82.80
2018-09-21T19:10:42.679Z,85.40
2018-09-21T19:13:11.155Z,88.20
2018-09-21T19:15:39.707Z,90.20
2018-09-21T19:18:08.264Z,91.20
2018-09-21T19:20:36.685Z,92.10
2018-09-21T19:23:05.365Z,92.10
2018-09-21T19:25:33.884Z,90.80
2018-09-21T19:28:02.404Z,90.50
2018-09-21T19:30:30.864Z,90.10
2018-09-21T19:32:59.376Z,90.60
2018-09-21T19:35:27.954Z,90.70
2018-09-21T19:37:56.400Z,91.30
2018-09-21T19:40:24.872Z,91.60
2018-09-21T19:42:53.459Z,92.10
2018-09-21T19:45:22.131Z,92.90
2018-09-21T19:47:50.644Z,93.60
2018-09-21T19:50:19.337Z,93.60
2018-09-21T19:52:47.821Z,94.00
2018-09-21T19:55:16.332Z,93.90
2018-09-21T19:57:44.775Z,94.40
2018-09-21T20:00:13.186Z,94.60
2018-09-21T20:02:41.623Z,94.80
2018-09-21T20:05:10.050Z,94.70
2018-09-21T20:07:38.578Z,95.30
2018-09-21T20:10:07.069Z,95.30
2018-09-21T20:12:35.573Z,95.40
2018-09-21T20:15:04.044Z,94.80
2018-09-21T20:17:32.856Z,95.10
2018-09-21T20:20:01.353Z,95.00
2018-09-21T20:22:29.833Z,95.00
2018-09-21T20:24:58.275Z,95.40
2018-09-21T20:27:26.878Z,95.00
2018-09-21T20:30:00.702Z,95.10
2018-09-21T20:32:34.444Z,95.10
2018-09-21T20:35:02.978Z,95.30
2018-09-21T20:37:31.541Z,95.00
2018-09-21T20:40:00.139Z,95.60
2018-09-21T20:42:28.613Z,96.10
2018-09-21T20:44:57.182Z,95.90
2018-09-21T20:47:25.661Z,96.20
2018-09-21T20:49:54.169Z,96.60
2018-09-21T20:52:23.185Z,96.70
2018-09-21T20:54:52.218Z,96.70
2018-09-21T20:57:20.678Z,97.20
2018-09-21T20:59:49.250Z,97.50
2018-09-21T21:02:17.848Z,98.20
2018-09-21T21:04:46.388Z,99.10
2018-09-21T21:07:14.822Z,98.80
2018-09-21T21:09:43.351Z,98.40
2018-09-21T21:12:11.879Z,98.80
2018-09-21T21:14:40.432Z,98.40
2018-09-21T21:17:09.097Z,98.90
2018-09-21T21:19:37.875Z,99.10
2018-09-21T21:22:06.441Z,98.70
2018-09-21T21:24:34.989Z,99.90
2018-09-21T21:27:03.775Z,99.90
2018-09-21T21:29:32.240Z,99.70
2018-09-21T21:32:00.905Z,99.50
2018-09-21T21:34:29.404Z,99.90
2018-09-21T21:36:58.551Z,99.80
2018-09-21T21:39:27.353Z,99.90
2018-09-21T21:41:56.223Z,99.90
2018-09-21T21:44:24.943Z,99.30
2018-09-21T21:46:53.547Z,99.90
2018-09-21T21:49:22.151Z,99.90
2018-09-21T21:51:50.799Z,99.90
2018-09-21T21:54:19.537Z,99.50
2018-09-21T21:56:48.314Z,99.20
2018-09-21T21:59:16.967Z,99.40
2018-09-21T22:01:46.884Z,99.30
2018-09-21T22:04:16.672Z,98.90
2018-09-21T22:06:45.146Z,98.70
2018-09-21T22:09:14.112Z,98.50
2018-09-21T22:11:48.067Z,98.70
2018-09-21T22:14:16.836Z,98.80
2018-09-21T22:16:45.641Z,98.90
2018-09-21T22:19:14.522Z,98.80
2018-09-21T22:21:43.090Z,98.50
2018-09-21T22:24:12.148Z,98.70
2018-09-21T22:26:40.899Z,98.90
2018-09-21T22:29:09.526Z,98.90
2018-09-21T22:31:38.390Z,99.10
2018-09-21T22:34:07.154Z,99.00
2018-09-21T22:36:35.849Z,99.20
2018-09-21T22:39:06.284Z,99.40
2018-09-21T22:41:34.887Z,99.90
2018-09-21T22:44:03.531Z,99.60
2018-09-21T22:46:32.078Z,99.40
2018-09-21T22:49:03.015Z,99.30
2018-09-21T22:51:31.988Z,99.30
2018-09-21T22:54:00.514Z,99.50
2018-09-21T22:56:29.002Z,99.20
2018-09-21T22:58:58.179Z,98.70
2018-09-21T23:01:26.953Z,99.10
2018-09-21T23:03:55.427Z,99.50
2018-09-21T23:06:24.283Z,99.90
2018-09-21T23:08:53.203Z,99.40
2018-09-21T23:11:21.918Z,99.30
2018-09-21T23:13:51.205Z,99.40
2018-09-21T23:16:19.967Z,99.00
2018-09-21T23:18:48.418Z,99.10
2018-09-21T23:21:17.037Z,99.80
2018-09-21T23:23:45.491Z,99.20
2018-09-21T23:26:14.301Z,98.70
2018-09-21T23:28:42.936Z,99.00
2018-09-21T23:31:11.522Z,98.70
2018-09-21T23:33:39.968Z,98.10
2018-09-21T23:36:08.566Z,97.60
2018-09-21T23:38:37.271Z,97.40
2018-09-21T23:41:06.219Z,98.00
2018-09-21T23:43:34.912Z,97.60
2018-09-21T23:46:03.420Z,96.90
2018-09-21T23:48:32.163Z,97.20
2018-09-21T23:51:00.739Z,96.80
2018-09-21T23:53:29.168Z,96.90
2018-09-21T23:55:58.342Z,97.20
2018-09-21T23:58:27.023Z,97.20
